AFR465 SBSV-LFPG
Flight info
| Callsign | AFR465 |
|---|---|
| Flight time | N/A |
| Altitude | 37000 |
| Route | ARVOR1A ARVOR DCT SIDOP UN857 FNR/N0470F270 UB623 CVS/N0480F390 UN873 IPERA N873 ODEGI/N0476F400 N873 GDV N858 VASTO UN858 AKUDA/N0429F240 UZ1 VFA UL14 ALAGU/N0478F400 DCT BABOV N873 DELOG DCT YURZI UL14 TEPRA UN867 MOKOR/N0480F340 UN741 NTS/N0464F300 UN741 KEPER KEPER9W |
| Aircraft | B772/H-SDE2E3FGHIJ5LORVWXY/LB1D1 |
Departure
| Time | 2026-04-30 13:57 |
|---|---|
| Airport | Deputado Luiz Eduardo Magalhães International Airport (SBSV) |
Arrival
| Time | N/A |
|---|---|
| Airport | Charles de Gaulle International Airport (LFPG) |
| Time | Latitude | Longitude | Altitude | Speed | Heading |
|---|---|---|---|---|---|
| 2026-04-30 13:55 | -12.91411 | -38.33086 | 48 ft | 13 kts | 354° |
| 2026-04-30 13:55 | -12.91271 | -38.33115 | 45 ft | 26 kts | 348° |
| 2026-04-30 13:55 | -12.91207 | -38.33160 | 48 ft | 10 kts | 288° |
| 2026-04-30 13:56 | -12.91214 | -38.33237 | 48 ft | 16 kts | 259° |
| 2026-04-30 13:56 | -12.91191 | -38.33392 | 48 ft | 24 kts | 289° |
| 2026-04-30 13:56 | -12.91197 | -38.33539 | 48 ft | 14 kts | 270° |
| 2026-04-30 13:56 | -12.91124 | -38.33576 | 48 ft | 14 kts | 31° |
| 2026-04-30 13:57 | -12.91089 | -38.33433 | 48 ft | 49 kts | 80° |
| 2026-04-30 13:57 | -12.90957 | -38.32769 | 47 ft | 139 kts | 78° |
| 2026-04-30 13:57 | -12.90717 | -38.31560 | 282 ft | 195 kts | 82° |
| 2026-04-30 13:57 | -12.90370 | -38.30142 | 978 ft | 207 kts | 78° |
| 2026-04-30 13:58 | -12.90019 | -38.28701 | 2047 ft | 213 kts | 78° |
| 2026-04-30 13:58 | -12.89251 | -38.25446 | 2880 ft | 251 kts | 78° |
| 2026-04-30 13:58 | -12.88838 | -38.23703 | 3711 ft | 254 kts | 77° |
| 2026-04-30 13:59 | -12.88412 | -38.21921 | 4452 ft | 259 kts | 78° |
| 2026-04-30 13:59 | -12.87978 | -38.20114 | 5238 ft | 261 kts | 77° |
| 2026-04-30 13:59 | -12.87541 | -38.18298 | 6047 ft | 263 kts | 77° |
| 2026-04-30 13:59 | -12.87097 | -38.16461 | 6769 ft | 268 kts | 77° |
| 2026-04-30 14:00 | -12.86653 | -38.14622 | 7487 ft | 269 kts | 77° |
| 2026-04-30 14:00 | -12.85911 | -38.11570 | 8741 ft | 271 kts | 77° |
| 2026-04-30 14:00 | -12.85749 | -38.10903 | 9001 ft | 272 kts | 77° |
| 2026-04-30 14:01 | -12.85479 | -38.09793 | 9442 ft | 274 kts | 77° |
| 2026-04-30 14:01 | -12.85001 | -38.07894 | 10212 ft | 275 kts | 72° |
| 2026-04-30 14:01 | -12.84088 | -38.06128 | 10555 ft | 294 kts | 54° |
| 2026-04-30 14:01 | -12.82684 | -38.04505 | 10703 ft | 317 kts | 48° |
| 2026-04-30 14:02 | -12.81093 | -38.02823 | 10867 ft | 339 kts | 47° |
| 2026-04-30 14:02 | -12.79389 | -38.01048 | 11051 ft | 360 kts | 47° |